Airfield :
LOGIN :

Register | Disclaimer

   EN    FR    IT 

 










Legend :    VFR   Marginal VFR   IFR   Intensive IFR   Very Intensive IFR
Visi :
Ceiling :
>= 8 km
>= 3000ft
5 to 8 km
1000 to 3000 ft
1500m to 5 km
500 to 1000 ft
800 to 1500m
200 to 500 ft
< 800m
< 200 ft
Symbols :   Thunderstorms  Fog  Heavy snow  Heavy precipitations  Wind > 20 kt
SIGMETs :     Misc.  Thunderstorms  Icing  Turbulence  Mountain Waves  Volcanic Ashes






- Airport Elevation : 341 ft


EPMO - Modlin

CURRENT METAR :
  • 190600Z 07003KT 010V120 CAVOK 21/15 Q1022

EXPIRED METARs :
  • 190530Z 06004KT CAVOK 20/16 Q1022
  • 190500Z 05003KT CAVOK 19/16 Q1022
  • 190430Z VRB02KT CAVOK 18/16 Q1022
  • 190400Z 05002KT CAVOK 17/15 Q1022
  • 190330Z VRB02KT CAVOK 16/14 Q1022
  • 190300Z 34003KT 280V050 CAVOK 15/14 Q1022
  • 190230Z 35006KT CAVOK 15/14 Q1022
  • 190200Z 34006KT CAVOK 15/14 Q1022

TAF TAF EPMO
Valid from the 19 at 06:00 until the 20 at 06:00 UTC


190530Z 1906/2006 07004KT CAVOK
BECMG 1908/1911 34010KT
BECMG 1918/1921 VRB02KT



MET'MAP, your aeronautical weather chart ! - Copyright ORBIFLY December 2007 - Disclaimer

ORBIFLY MET'MAP TEAM :

Programming & Development : Alexandra Zaïnal
Original concept : Baudouin d'Aumeries
Technical & hardware support : Manuel Goepfert
Assistance : Marc-Olivier Méhu




SOURCES & CREDITS :

   NOAA